createdAt,value
2023-01-17T00:02:25.872Z,95774.87
2023-01-17T00:05:12.171Z,95782.37
2023-01-17T00:07:58.419Z,95787.46
2023-01-17T00:10:28.150Z,95777.16
2023-01-17T00:13:02.957Z,95789.13
2023-01-17T00:15:31.835Z,95787.88
2023-01-17T00:17:59.954Z,95790.53
2023-01-17T00:20:49.565Z,95794.52
2023-01-17T00:23:42.466Z,95790.53
2023-01-17T00:26:16.273Z,95797.17
2023-01-17T00:28:44.852Z,95803.05
2023-01-17T00:31:15.838Z,95797.17
2023-01-17T00:33:43.734Z,95796.63
2023-01-17T00:36:11.773Z,95799.83
2023-01-17T00:38:40.256Z,95788.72
2023-01-17T00:41:12.009Z,95788.91
2023-01-17T00:43:58.741Z,95786.33
2023-01-17T00:46:45.674Z,95782.89
2023-01-17T00:49:32.421Z,95772.97
2023-01-17T00:52:19.615Z,95782.19
2023-01-17T00:55:08.944Z,95772.89
2023-01-17T00:57:55.289Z,95767.02
2023-01-17T01:00:41.884Z,95763.59
2023-01-17T01:03:29.259Z,95746.31
2023-01-17T01:06:16.420Z,95744.77
2023-01-17T01:09:03.062Z,95749.71
2023-01-17T01:11:49.253Z,95749.53
2023-01-17T01:14:35.631Z,95751.08
2023-01-17T01:17:22.236Z,95744.44
2023-01-17T01:20:08.553Z,95742.80
2023-01-17T01:22:54.811Z,95740.15
2023-01-17T01:25:41.313Z,95747.90
2023-01-17T01:28:32.704Z,95736.23
2023-01-17T01:31:24.618Z,95742.33
2023-01-17T01:33:53.091Z,95751.88
2023-01-17T01:36:21.267Z,95737.48
2023-01-17T01:38:49.789Z,95737.16
2023-01-17T01:41:17.741Z,95726.53
2023-01-17T01:43:54.539Z,95725.98
2023-01-17T01:46:41.275Z,95718.00
2023-01-17T01:49:19.165Z,95695.91
2023-01-17T01:51:59.874Z,95708.70
2023-01-17T01:54:39.419Z,95712.94
2023-01-17T01:57:12.216Z,95708.63
2023-01-17T01:59:48.233Z,95699.02
2023-01-17T02:02:16.373Z,95679.09
2023-01-17T02:04:44.938Z,95679.09
2023-01-17T02:07:24.473Z,95683.07
2023-01-17T02:09:53.004Z,95682.27
2023-01-17T02:12:21.973Z,95680.41
2023-01-17T02:14:49.708Z,95678.28
2023-01-17T02:17:23.037Z,95670.09
2023-01-17T02:20:48.048Z,95663.99
2023-01-17T02:23:56.406Z,95657.57
2023-01-17T02:26:59.027Z,95656.58
2023-01-17T02:30:18.429Z,95640.48
2023-01-17T02:33:10.174Z,95646.91
2023-01-17T02:35:46.648Z,95656.73
2023-01-17T02:38:31.445Z,95655.33
2023-01-17T02:41:07.390Z,95650.78
2023-01-17T02:43:37.312Z,95644.06
2023-01-17T02:46:05.501Z,95646.64
2023-01-17T02:48:36.598Z,95649.18
2023-01-17T02:51:21.983Z,95655.75
2023-01-17T02:54:06.756Z,95655.66
2023-01-17T02:57:19.192Z,95666.52
2023-01-17T03:00:09.591Z,95665.41
2023-01-17T03:02:54.820Z,95663.99
2023-01-17T03:05:51.894Z,95665.55
2023-01-17T03:08:21.220Z,95666.02
2023-01-17T03:10:49.285Z,95663.02
2023-01-17T03:13:17.409Z,95660.06
2023-01-17T03:15:45.551Z,95656.84
2023-01-17T03:18:15.897Z,95655.44
2023-01-17T03:20:44.009Z,95657.88
2023-01-17T03:23:11.956Z,95657.88
2023-01-17T03:25:39.911Z,95647.77
2023-01-17T03:28:07.722Z,95651.75
2023-01-17T03:30:40.774Z,95650.98
2023-01-17T03:33:08.854Z,95654.41
2023-01-17T03:35:36.991Z,95649.89
2023-01-17T03:38:04.813Z,95646.12
2023-01-17T03:40:32.700Z,95651.11
2023-01-17T03:43:00.555Z,95646.57
2023-01-17T03:45:28.326Z,95640.17
2023-01-17T03:47:57.495Z,95639.75
2023-01-17T03:50:26.102Z,95646.95
2023-01-17T03:52:53.952Z,95648.86
2023-01-17T03:55:21.972Z,95656.53
2023-01-17T03:57:50.004Z,95657.22
2023-01-17T04:00:18.209Z,95665.20
2023-01-17T04:02:46.210Z,95666.97
2023-01-17T04:05:14.391Z,95669.84
2023-01-17T04:07:42.302Z,95672.75
2023-01-17T04:10:11.072Z,95675.55
2023-01-17T04:12:39.051Z,95679.45
2023-01-17T04:15:07.898Z,95675.46
2023-01-17T04:17:35.844Z,95676.67
2023-01-17T04:20:04.449Z,95668.14
2023-01-17T04:22:32.551Z,95668.95
2023-01-17T04:25:00.571Z,95666.81
2023-01-17T04:27:28.525Z,95668.70
2023-01-17T04:29:56.685Z,95677.45
2023-01-17T04:32:24.601Z,95673.23
2023-01-17T04:34:52.522Z,95669.59
2023-01-17T04:37:20.793Z,95674.99
2023-01-17T04:39:48.783Z,95670.87
2023-01-17T04:42:16.639Z,95670.73
2023-01-17T04:44:44.504Z,95670.82
2023-01-17T04:47:14.029Z,95675.45
2023-01-17T04:49:44.133Z,95684.31
2023-01-17T04:52:12.240Z,95683.62
2023-01-17T04:54:41.200Z,95687.92
2023-01-17T04:57:10.331Z,95687.70
2023-01-17T04:59:38.336Z,95687.78
2023-01-17T05:02:06.205Z,95686.70
2023-01-17T05:04:33.893Z,95688.11
2023-01-17T05:07:01.836Z,95680.30
2023-01-17T05:09:29.744Z,95692.66
2023-01-17T05:11:58.421Z,95695.31
2023-01-17T05:14:26.484Z,95698.53
2023-01-17T05:16:58.741Z,95704.06
2023-01-17T05:19:29.027Z,95711.70
2023-01-17T05:21:58.990Z,95705.62
2023-01-17T05:24:27.212Z,95708.61
2023-01-17T05:26:58.912Z,95717.91
2023-01-17T05:29:30.145Z,95711.34
2023-01-17T05:31:58.102Z,95710.87
2023-01-17T05:34:25.962Z,95707.44
2023-01-17T05:36:54.536Z,95709.11
2023-01-17T05:39:22.293Z,95709.33
2023-01-17T05:41:50.455Z,95709.87
2023-01-17T05:44:18.408Z,95706.66
2023-01-17T05:46:46.211Z,95705.34
2023-01-17T05:49:14.198Z,95706.11
2023-01-17T05:51:42.431Z,95695.48
2023-01-17T05:54:10.423Z,95698.27
2023-01-17T05:56:38.055Z,95692.19
2023-01-17T05:59:06.155Z,95692.73
2023-01-17T06:01:33.997Z,95689.78
2023-01-17T06:04:01.802Z,95691.33
2023-01-17T06:06:29.506Z,95688.89
2023-01-17T06:08:57.848Z,95687.00
2023-01-17T06:11:26.754Z,95686.70
2023-01-17T06:13:54.788Z,95689.80
2023-01-17T06:16:22.879Z,95683.41
2023-01-17T06:18:50.594Z,95684.06
2023-01-17T06:21:19.222Z,95685.09
2023-01-17T06:23:47.041Z,95677.55
2023-01-17T06:26:14.760Z,95689.44
2023-01-17T06:28:42.477Z,95693.34
2023-01-17T06:31:10.300Z,95700.13
2023-01-17T06:33:38.077Z,95706.44
2023-01-17T06:36:06.811Z,95708.45
2023-01-17T06:38:34.558Z,95703.83
2023-01-17T06:41:05.716Z,95704.98
2023-01-17T06:43:34.479Z,95708.31
2023-01-17T06:46:02.170Z,95693.03
2023-01-17T06:48:30.188Z,95696.38
2023-01-17T06:50:58.697Z,95694.63
2023-01-17T06:53:26.436Z,95694.55
2023-01-17T06:55:57.486Z,95694.23
2023-01-17T06:58:25.261Z,95690.91
2023-01-17T07:00:53.484Z,95685.27
2023-01-17T07:03:25.772Z,95688.37
2023-01-17T07:05:53.611Z,95685.06
2023-01-17T07:08:21.798Z,95676.44
2023-01-17T07:10:49.682Z,95667.34
2023-01-17T07:13:17.577Z,95665.91
2023-01-17T07:15:45.696Z,95674.37
2023-01-17T07:18:14.230Z,95681.70
2023-01-17T07:20:43.424Z,95691.67
2023-01-17T07:23:12.266Z,95696.05
2023-01-17T07:25:40.055Z,95695.06
2023-01-17T07:28:08.277Z,95697.53
2023-01-17T07:30:36.218Z,95689.12
2023-01-17T07:33:05.780Z,95691.01
2023-01-17T07:35:33.827Z,95697.39
2023-01-17T07:38:01.434Z,95694.41
2023-01-17T07:40:29.267Z,95688.87
2023-01-17T07:43:01.815Z,95693.88
2023-01-17T07:45:29.460Z,95689.81
2023-01-17T07:47:57.545Z,95692.83
2023-01-17T07:50:25.292Z,95699.73
2023-01-17T07:52:53.809Z,95700.84
2023-01-17T07:55:21.664Z,95704.18
2023-01-17T07:57:50.437Z,95705.62
2023-01-17T08:00:19.066Z,95711.32
2023-01-17T08:02:46.817Z,95709.55
2023-01-17T08:05:15.938Z,95724.55
2023-01-17T08:07:43.714Z,95718.55
2023-01-17T08:10:16.067Z,95725.98
2023-01-17T08:12:49.561Z,95730.45
2023-01-17T08:15:18.813Z,95728.56
2023-01-17T08:17:51.825Z,95732.31
2023-01-17T08:20:20.723Z,95737.33
2023-01-17T08:22:48.247Z,95737.89
2023-01-17T08:25:15.941Z,95736.66
2023-01-17T08:27:44.029Z,95735.42
2023-01-17T08:30:12.702Z,95737.97
2023-01-17T08:32:42.156Z,95741.41
2023-01-17T08:35:10.299Z,95750.53
2023-01-17T08:37:39.219Z,95749.31
2023-01-17T08:40:10.498Z,95745.31
2023-01-17T08:42:40.449Z,95739.20
2023-01-17T08:45:10.096Z,95746.86
2023-01-17T08:47:38.177Z,95745.88
2023-01-17T08:50:06.372Z,95746.43
2023-01-17T08:52:35.244Z,95753.53
2023-01-17T08:55:05.537Z,95753.22
2023-01-17T08:57:33.102Z,95749.43
2023-01-17T09:00:01.080Z,95751.54
2023-01-17T09:02:29.139Z,95754.66
2023-01-17T09:04:56.992Z,95758.32
2023-01-17T09:07:26.532Z,95759.90
2023-01-17T09:09:54.317Z,95763.34
2023-01-17T09:12:21.937Z,95779.45
2023-01-17T09:14:49.509Z,95792.02
2023-01-17T09:17:17.159Z,95796.02
2023-01-17T09:19:44.907Z,95802.03
2023-01-17T09:22:12.648Z,95806.25
2023-01-17T09:24:42.937Z,95799.48
2023-01-17T09:27:11.871Z,95803.14
2023-01-17T09:29:39.467Z,95795.70
2023-01-17T09:32:06.968Z,95796.81
2023-01-17T09:34:36.644Z,95809.59
2023-01-17T09:37:04.339Z,95804.47
2023-01-17T09:39:31.967Z,95802.46
2023-01-17T09:42:08.096Z,95799.46
2023-01-17T09:44:48.893Z,95797.91
2023-01-17T09:47:21.915Z,95791.25
2023-01-17T09:49:49.594Z,95773.34
2023-01-17T09:52:23.290Z,95763.55
2023-01-17T09:54:51.573Z,95763.90
2023-01-17T09:58:00.535Z,95787.00
2023-01-17T10:00:36.553Z,95783.11
2023-01-17T10:03:30.238Z,95786.27
2023-01-17T10:06:32.473Z,95787.83
2023-01-17T10:09:20.980Z,95786.05
2023-01-17T10:12:15.920Z,95796.95
2023-01-17T10:15:15.054Z,95806.96
2023-01-17T10:18:05.743Z,95801.06
2023-01-17T10:20:55.591Z,95805.06
2023-01-17T10:23:56.406Z,95807.95
2023-01-17T10:26:26.519Z,95808.51
2023-01-17T10:29:00.979Z,95817.08
2023-01-17T10:31:36.928Z,95814.97
2023-01-17T10:34:18.989Z,95805.17
2023-01-17T10:36:52.103Z,95802.07
2023-01-17T10:39:25.268Z,95813.27
2023-01-17T10:42:18.315Z,95820.97
2023-01-17T10:45:17.073Z,95824.63
2023-01-17T10:47:49.841Z,95829.08
2023-01-17T10:50:19.476Z,95829.76
2023-01-17T10:53:03.366Z,95829.88
2023-01-17T10:55:45.431Z,95828.09
2023-01-17T10:58:13.411Z,95817.53
2023-01-17T11:00:58.602Z,95832.11
2023-01-17T11:03:28.459Z,95836.55
2023-01-17T11:06:24.403Z,95838.66
2023-01-17T11:09:01.758Z,95838.34
2023-01-17T11:11:32.520Z,95830.98
2023-01-17T11:14:07.611Z,95816.44
2023-01-17T11:16:36.704Z,95817.56
2023-01-17T11:19:15.644Z,95811.22
2023-01-17T11:21:58.139Z,95814.23
2023-01-17T11:24:40.275Z,95809.64
2023-01-17T11:27:13.873Z,95802.65
2023-01-17T11:29:41.745Z,95812.42
2023-01-17T11:32:30.313Z,95813.86
2023-01-17T11:35:25.257Z,95801.80
2023-01-17T11:38:20.808Z,95818.84
2023-01-17T11:40:50.188Z,95811.91
2023-01-17T11:43:25.124Z,95802.09
2023-01-17T11:46:17.266Z,95778.70
2023-01-17T11:48:55.883Z,95778.70
2023-01-17T11:51:35.363Z,95778.99
2023-01-17T11:54:20.377Z,95786.08
2023-01-17T11:56:50.074Z,95787.28
2023-01-17T11:59:38.513Z,95782.59
2023-01-17T12:02:39.895Z,95773.12
2023-01-17T12:05:47.747Z,95758.36
2023-01-17T12:08:51.300Z,95755.86
2023-01-17T12:11:44.935Z,95741.33
2023-01-17T12:14:30.483Z,95743.20
2023-01-17T12:17:07.645Z,95750.75
2023-01-17T12:20:03.699Z,95747.59
2023-01-17T12:23:18.028Z,95750.24
2023-01-17T12:26:17.633Z,95752.11
2023-01-17T12:29:07.469Z,95763.55
2023-01-17T12:31:49.567Z,95772.08
2023-01-17T12:34:22.601Z,95773.95
2023-01-17T12:37:04.704Z,95774.45
2023-01-17T12:39:49.825Z,95772.78
2023-01-17T12:42:25.804Z,95772.86
2023-01-17T12:45:09.993Z,95774.08
2023-01-17T12:47:42.261Z,95785.41
2023-01-17T12:50:36.745Z,95784.31
2023-01-17T12:53:18.299Z,95776.36
2023-01-17T12:56:15.602Z,95769.39
2023-01-17T12:58:48.783Z,95767.80
2023-01-17T13:01:31.922Z,95766.45
2023-01-17T13:04:10.779Z,95770.25
2023-01-17T13:06:46.801Z,95775.35
2023-01-17T13:09:19.639Z,95777.92
2023-01-17T13:12:04.903Z,95771.03
2023-01-17T13:14:32.956Z,95761.02
2023-01-17T13:17:20.325Z,95761.99
2023-01-17T13:20:11.805Z,95756.00
2023-01-17T13:22:40.829Z,95757.84
2023-01-17T13:25:41.926Z,95764.25
2023-01-17T13:28:34.498Z,95758.39
2023-01-17T13:31:32.541Z,95761.70
2023-01-17T13:34:29.798Z,95767.38
2023-01-17T13:37:30.044Z,95770.19
2023-01-17T13:40:36.519Z,95779.44
2023-01-17T13:43:13.993Z,95781.20
2023-01-17T13:45:45.345Z,95786.41
2023-01-17T13:48:21.245Z,95791.27
2023-01-17T13:50:58.567Z,95789.28
2023-01-17T13:53:36.531Z,95796.84
2023-01-17T13:56:31.800Z,95808.27
2023-01-17T13:59:03.463Z,95815.30
2023-01-17T14:01:38.884Z,95813.91
2023-01-17T14:04:12.104Z,95818.91
2023-01-17T14:06:49.131Z,95816.14
2023-01-17T14:09:27.800Z,95809.60
2023-01-17T14:12:13.651Z,95816.20
2023-01-17T14:14:46.740Z,95802.28
2023-01-17T14:17:20.111Z,95800.22
2023-01-17T14:20:12.061Z,95806.75
2023-01-17T14:22:51.477Z,95808.71
2023-01-17T14:25:25.010Z,95791.70
2023-01-17T14:27:58.208Z,95788.50
2023-01-17T14:30:36.723Z,95795.92
2023-01-17T14:33:12.934Z,95798.20
2023-01-17T14:35:51.439Z,95803.70
2023-01-17T14:38:28.195Z,95812.19
2023-01-17T14:41:17.019Z,95823.53
2023-01-17T14:43:48.338Z,95818.63
2023-01-17T14:46:30.574Z,95812.20
2023-01-17T14:49:09.037Z,95808.43
2023-01-17T14:51:38.479Z,95822.29
2023-01-17T14:54:17.897Z,95825.02
2023-01-17T14:56:47.381Z,95824.48
2023-01-17T14:59:22.484Z,95829.30
2023-01-17T15:02:06.549Z,95830.13
2023-01-17T15:04:29.876Z,95832.05
2023-01-17T15:06:59.994Z,95838.77
2023-01-17T15:09:32.641Z,95835.02
2023-01-17T15:12:02.237Z,95835.80
2023-01-17T15:14:37.307Z,95834.27
2023-01-17T15:17:24.231Z,95843.65
2023-01-17T15:20:01.181Z,95841.55
2023-01-17T15:22:29.484Z,95839.59
2023-01-17T15:24:59.674Z,95837.95
2023-01-17T15:27:27.917Z,95843.77
2023-01-17T15:29:58.490Z,95844.44
2023-01-17T15:32:28.409Z,95844.34
2023-01-17T15:34:56.505Z,95835.02
2023-01-17T15:37:34.737Z,95830.13
2023-01-17T15:40:12.883Z,95832.02
2023-01-17T15:42:43.076Z,95820.55
2023-01-17T15:45:22.623Z,95816.64
2023-01-17T15:47:50.641Z,95818.97
2023-01-17T15:50:25.803Z,95823.53
2023-01-17T15:53:00.751Z,95824.27
2023-01-17T15:55:37.952Z,95831.70
2023-01-17T15:58:28.305Z,95825.11
2023-01-17T16:00:58.579Z,95824.87
2023-01-17T16:03:30.611Z,95824.75
2023-01-17T16:06:02.307Z,95827.39
2023-01-17T16:08:39.241Z,95819.36
2023-01-17T16:11:10.489Z,95825.78
2023-01-17T16:13:43.343Z,95834.64
2023-01-17T16:16:17.424Z,95844.02
2023-01-17T16:18:47.119Z,95850.98
2023-01-17T16:21:26.913Z,95835.30
2023-01-17T16:23:56.212Z,95824.16
2023-01-17T16:26:30.143Z,95830.86
2023-01-17T16:28:58.010Z,95817.84
2023-01-17T16:31:27.600Z,95818.99
2023-01-17T16:33:56.557Z,95811.38
2023-01-17T16:36:24.555Z,95806.12
2023-01-17T16:38:52.838Z,95803.05
2023-01-17T16:41:21.463Z,95802.64
2023-01-17T16:44:05.787Z,95815.41
2023-01-17T16:46:47.367Z,95811.39
2023-01-17T16:49:30.424Z,95802.25
2023-01-17T16:52:05.894Z,95808.31
2023-01-17T16:54:46.158Z,95819.89
2023-01-17T16:57:17.515Z,95822.41
2023-01-17T16:59:50.932Z,95822.59
2023-01-17T17:02:18.377Z,95835.48
2023-01-17T17:04:46.394Z,95837.48
2023-01-17T17:07:14.162Z,95839.44
2023-01-17T17:09:42.406Z,95834.50
2023-01-17T17:12:10.152Z,95828.73
2023-01-17T17:14:39.136Z,95827.48
2023-01-17T17:17:07.896Z,95825.05
2023-01-17T17:19:35.827Z,95823.27
2023-01-17T17:22:05.783Z,95829.70
2023-01-17T17:24:33.838Z,95822.24
2023-01-17T17:27:03.516Z,95818.03
2023-01-17T17:29:31.172Z,95815.15
2023-01-17T17:31:59.219Z,95802.71
2023-01-17T17:34:27.802Z,95808.36
2023-01-17T17:36:55.706Z,95810.69
2023-01-17T17:39:23.502Z,95801.94
2023-01-17T17:41:52.281Z,95792.86
2023-01-17T17:44:19.724Z,95783.03
2023-01-17T17:46:50.980Z,95766.53
2023-01-17T17:49:20.409Z,95755.78
2023-01-17T17:51:47.915Z,95754.70
2023-01-17T17:54:18.966Z,95753.38
2023-01-17T17:56:47.943Z,95762.35
2023-01-17T17:59:20.063Z,95757.26
2023-01-17T18:01:48.320Z,95766.81
2023-01-17T18:04:16.032Z,95769.70
2023-01-17T18:06:50.863Z,95776.34
2023-01-17T18:09:19.442Z,95767.81
2023-01-17T18:11:47.305Z,95768.92
2023-01-17T18:14:16.585Z,95762.58
2023-01-17T18:16:44.791Z,95752.83
2023-01-17T18:19:19.758Z,95743.30
2023-01-17T18:21:49.945Z,95731.34
2023-01-17T18:24:21.358Z,95729.53
2023-01-17T18:26:56.690Z,95719.53
2023-01-17T18:29:26.502Z,95720.31
2023-01-17T18:31:55.003Z,95706.02
2023-01-17T18:34:28.567Z,95695.39
2023-01-17T18:36:57.497Z,95701.95
2023-01-17T18:39:28.860Z,95703.42
2023-01-17T18:41:57.839Z,95696.45
2023-01-17T18:44:29.226Z,95686.51
2023-01-17T18:47:01.217Z,95679.23
2023-01-17T18:49:32.060Z,95690.30
2023-01-17T18:52:00.332Z,95685.45
2023-01-17T18:54:28.538Z,95672.37
2023-01-17T18:56:56.714Z,95680.05
2023-01-17T18:59:27.098Z,95668.39
2023-01-17T19:01:59.028Z,95672.94
2023-01-17T19:04:31.532Z,95669.03
2023-01-17T19:06:59.740Z,95668.59
2023-01-17T19:09:27.655Z,95662.25
2023-01-17T19:11:56.487Z,95647.74
2023-01-17T19:14:31.841Z,95644.28
2023-01-17T19:17:01.285Z,95639.84
2023-01-17T19:19:29.001Z,95629.52
2023-01-17T19:22:09.926Z,95632.52
2023-01-17T19:24:38.388Z,95633.29
2023-01-17T19:27:08.168Z,95630.41
2023-01-17T19:29:36.570Z,95635.17
2023-01-17T19:32:18.613Z,95631.19
2023-01-17T19:34:50.290Z,95625.65
2023-01-17T19:37:17.995Z,95621.75
2023-01-17T19:39:46.305Z,95628.39
2023-01-17T19:42:15.131Z,95623.08
2023-01-17T19:44:45.146Z,95618.31
2023-01-17T19:47:16.387Z,95608.09
2023-01-17T19:49:44.093Z,95599.35
2023-01-17T19:52:12.610Z,95602.31
2023-01-17T19:54:41.074Z,95602.65
2023-01-17T19:57:11.951Z,95593.09
2023-01-17T19:59:39.990Z,95591.33
2023-01-17T20:02:09.881Z,95572.51
2023-01-17T20:04:52.633Z,95567.72
2023-01-17T20:07:24.829Z,95573.03
2023-01-17T20:09:55.945Z,95572.72
2023-01-17T20:12:23.815Z,95570.76
2023-01-17T20:14:53.944Z,95561.12
2023-01-17T20:17:21.879Z,95557.35
2023-01-17T20:19:51.105Z,95548.86
2023-01-17T20:22:20.900Z,95549.84
2023-01-17T20:24:49.611Z,95540.77
2023-01-17T20:27:18.444Z,95545.00
2023-01-17T20:29:50.616Z,95541.79
2023-01-17T20:32:18.966Z,95537.12
2023-01-17T20:34:47.586Z,95540.08
2023-01-17T20:37:15.539Z,95531.45
2023-01-17T20:39:46.037Z,95534.63
2023-01-17T20:42:13.861Z,95543.71
2023-01-17T20:44:41.518Z,95543.41
2023-01-17T20:47:08.947Z,95537.54
2023-01-17T20:49:36.912Z,95540.63
2023-01-17T20:52:06.260Z,95535.02
2023-01-17T20:54:37.277Z,95537.03
2023-01-17T20:57:04.949Z,95527.17
2023-01-17T20:59:32.370Z,95524.17
2023-01-17T21:02:00.325Z,95519.63
2023-01-17T21:04:28.543Z,95513.23
2023-01-17T21:06:57.080Z,95514.56
2023-01-17T21:09:24.753Z,95511.02
2023-01-17T21:11:53.782Z,95505.05
2023-01-17T21:14:21.728Z,95488.46
2023-01-17T21:16:51.391Z,95493.56
2023-01-17T21:19:20.205Z,95489.95
2023-01-17T21:21:49.473Z,95477.34
2023-01-17T21:24:18.874Z,95481.45
2023-01-17T21:26:49.317Z,95495.86
2023-01-17T21:29:18.009Z,95482.47
2023-01-17T21:31:45.943Z,95467.63
2023-01-17T21:34:17.703Z,95452.35
2023-01-17T21:36:45.389Z,95456.03
2023-01-17T21:39:17.697Z,95448.58
2023-01-17T21:41:49.020Z,95441.52
2023-01-17T21:44:22.685Z,95450.39
2023-01-17T21:46:56.679Z,95444.88
2023-01-17T21:49:24.832Z,95441.21
2023-01-17T21:51:52.540Z,95434.12
2023-01-17T21:54:44.034Z,95431.26
2023-01-17T21:57:33.020Z,95431.16
2023-01-17T22:00:00.841Z,95423.29
2023-01-17T22:02:31.045Z,95438.57
2023-01-17T22:04:58.987Z,95430.48
2023-01-17T22:07:26.807Z,95433.82
2023-01-17T22:09:56.268Z,95439.60
2023-01-17T22:12:24.219Z,95439.93
2023-01-17T22:14:53.588Z,95433.28
2023-01-17T22:17:22.435Z,95433.05
2023-01-17T22:19:50.292Z,95431.05
2023-01-17T22:22:18.110Z,95428.29
2023-01-17T22:24:46.470Z,95419.64
2023-01-17T22:27:14.034Z,95423.18
2023-01-17T22:29:42.764Z,95424.27
2023-01-17T22:32:10.478Z,95428.62
2023-01-17T22:34:38.726Z,95419.52
2023-01-17T22:37:09.405Z,95429.81
2023-01-17T22:39:40.744Z,95415.59
2023-01-17T22:42:08.649Z,95419.69
2023-01-17T22:44:36.471Z,95419.23
2023-01-17T22:47:05.144Z,95401.59
2023-01-17T22:49:32.971Z,95368.70
2023-01-17T22:52:00.820Z,95363.81
2023-01-17T22:54:28.445Z,95372.02
2023-01-17T22:56:56.301Z,95354.91
2023-01-17T22:59:24.644Z,95368.23
2023-01-17T23:01:53.724Z,95353.82
2023-01-17T23:04:21.622Z,95341.27
2023-01-17T23:06:49.254Z,95340.70
2023-01-17T23:09:17.333Z,95339.81
2023-01-17T23:11:51.308Z,95335.67
2023-01-17T23:14:22.884Z,95351.11
2023-01-17T23:17:19.512Z,95356.89
2023-01-17T23:19:52.618Z,95358.87
2023-01-17T23:22:23.910Z,95364.76
2023-01-17T23:24:58.973Z,95366.72
2023-01-17T23:28:01.332Z,95366.81
2023-01-17T23:30:36.911Z,95364.24
2023-01-17T23:33:11.774Z,95373.25
2023-01-17T23:35:42.557Z,95373.67
2023-01-17T23:38:33.463Z,95374.89
2023-01-17T23:41:25.008Z,95382.77
2023-01-17T23:43:55.204Z,95387.99
2023-01-17T23:46:24.778Z,95381.98
2023-01-17T23:48:52.688Z,95384.50
2023-01-17T23:51:20.498Z,95381.52
2023-01-17T23:53:48.150Z,95379.27
2023-01-17T23:56:22.542Z,95384.69
2023-01-17T23:58:51.014Z,95385.70
